This is the latest recevied weather packets stored in our database for station/object TG9ADI-20. If no packets are shown the sender has not sent any weather packets the latest 1 day(s).
| Time | Temp. | Humidity | Pressure | Rain* | Wind** | Luminosity | Snow |
|---|---|---|---|---|---|---|---|
| 1778098820 | 26.11° C | 10% | - | 0 mm | - | - | - |
| 1778097018 | 26.11° C | 83% | 1012 hPa | 0 mm | - | - | - |
| 1778095817 | 27.22° C | 71% | 1012 hPa | 0 mm | - | - | - |
| 1778095216 | 27.78° C | 72% | 1012 hPa | 0 mm | - | - | - |
| 1778094015 | 26.11° C | 10% | - | 0 mm | - | - | - |
| 1778092814 | 27.78° C | 64% | 1012 hPa | 0 mm | - | - | - |
| 1778091012 | 27.78° C | 47% | 1013 hPa | 0 mm | - | - | - |
| 1778089811 | 27.22° C | 47% | 1013 hPa | 0 mm | - | - | - |
| 1778087362 | 27.78° C | 47% | 1014 hPa | 0 mm | - | - | - |
| 1778083201 | 23.89° C | 69% | 1014 hPa | 0 mm | - | - | - |
| 1778082000 | 23.89° C | 69% | 1014 hPa | 0 mm | - | - | - |
| 1778081399 | 23.33° C | 83% | 1015 hPa | 0 mm | - | - | - |
| 1778079597 | 21.67° C | 78% | 1015 hPa | 0 mm | - | - | - |
| 1778077195 | 21.11° C | 85% | 1015 hPa | 0 mm | - | - | - |
| 1778075994 | 19.44° C | 88% | 1015 hPa | 0 mm | - | - | - |
| 1778074793 | 18.89° C | 89% | 1015 hPa | 0 mm | - | - | - |
| 1778074192 | 19.44° C | 92% | 1015 hPa | 0 mm | - | - | - |
| 1778073592 | 19.44° C | 93% | 1015 hPa | 0 mm | - | - | - |
| 1778070589 | 17.78° C | 96% | 1015 hPa | 0 mm | - | - | - |
| 1778067586 | 16.11° C | 97% | 1015 hPa | 0 mm | - | - | - |
| 1778066385 | 17.22° C | 96% | 1015 hPa | 0 mm | - | - | - |
| 1778065184 | 16.67° C | 96% | 1016 hPa | 0 mm | - | - | - |
| 1778062181 | 18.89° C | 92% | 1014 hPa | 0 mm | - | - | - |
| 1778060980 | 18.89° C | 92% | 1014 hPa | 0 mm | - | - | - |
| 1778059178 | 19.44° C | 88% | 1014 hPa | 0 mm | - | - | - |
* Rain latest hour (hover to see other rain measurements)
** Current wind speed in m/s (hover to see current wind gust speed)